sensor_id;sensor_type;location;lat;lon;timestamp;temperature;humidity
24146;DHT22;12308;50.948;4.706;2023-04-16T00:00:45;8.90;99.90
24146;DHT22;12308;50.948;4.706;2023-04-16T00:03:13;8.90;99.90
24146;DHT22;12308;50.948;4.706;2023-04-16T00:05:38;8.90;99.90
24146;DHT22;12308;50.948;4.706;2023-04-16T00:08:04;9.00;99.90
24146;DHT22;12308;50.948;4.706;2023-04-16T00:10:30;9.00;99.90
24146;DHT22;12308;50.948;4.706;2023-04-16T00:12:56;9.00;99.90
24146;DHT22;12308;50.948;4.706;2023-04-16T00:15:21;9.10;99.90
24146;DHT22;12308;50.948;4.706;2023-04-16T00:17:47;9.10;99.90
24146;DHT22;12308;50.948;4.706;2023-04-16T00:20:13;9.00;99.90
24146;DHT22;12308;50.948;4.706;2023-04-16T00:22:38;9.00;99.90
24146;DHT22;12308;50.948;4.706;2023-04-16T00:25:04;9.00;99.90
24146;DHT22;12308;50.948;4.706;2023-04-16T00:27:30;8.90;99.90
24146;DHT22;12308;50.948;4.706;2023-04-16T00:29:56;9.00;99.90
24146;DHT22;12308;50.948;4.706;2023-04-16T00:32:21;9.00;99.90
24146;DHT22;12308;50.948;4.706;2023-04-16T00:34:47;9.10;99.90
24146;DHT22;12308;50.948;4.706;2023-04-16T00:37:13;9.00;99.90
24146;DHT22;12308;50.948;4.706;2023-04-16T00:39:38;9.10;99.90
24146;DHT22;12308;50.948;4.706;2023-04-16T00:42:04;9.20;99.90
24146;DHT22;12308;50.948;4.706;2023-04-16T00:44:30;9.20;99.90
24146;DHT22;12308;50.948;4.706;2023-04-16T00:46:56;9.20;99.90
24146;DHT22;12308;50.948;4.706;2023-04-16T00:49:22;9.20;99.90
24146;DHT22;12308;50.948;4.706;2023-04-16T00:51:49;9.10;99.90
24146;DHT22;12308;50.948;4.706;2023-04-16T00:54:15;9.10;99.90
24146;DHT22;12308;50.948;4.706;2023-04-16T00:56:40;9.20;99.90
24146;DHT22;12308;50.948;4.706;2023-04-16T00:59:07;9.20;99.90
24146;DHT22;12308;50.948;4.706;2023-04-16T01:01:33;9.20;99.90
24146;DHT22;12308;50.948;4.706;2023-04-16T01:03:59;9.30;99.90
24146;DHT22;12308;50.948;4.706;2023-04-16T01:06:25;9.30;99.90
24146;DHT22;12308;50.948;4.706;2023-04-16T01:08:51;9.20;99.90
24146;DHT22;12308;50.948;4.706;2023-04-16T01:11:16;9.10;99.90
24146;DHT22;12308;50.948;4.706;2023-04-16T01:13:42;9.10;99.90
24146;DHT22;12308;50.948;4.706;2023-04-16T01:16:09;9.00;99.90
24146;DHT22;12308;50.948;4.706;2023-04-16T01:18:36;9.00;99.90
24146;DHT22;12308;50.948;4.706;2023-04-16T01:21:03;9.00;99.90
24146;DHT22;12308;50.948;4.706;2023-04-16T01:23:29;9.10;99.90
24146;DHT22;12308;50.948;4.706;2023-04-16T01:25:55;9.00;99.90
24146;DHT22;12308;50.948;4.706;2023-04-16T01:28:21;9.10;99.90
24146;DHT22;12308;50.948;4.706;2023-04-16T01:30:47;9.10;99.90
24146;DHT22;12308;50.948;4.706;2023-04-16T01:33:13;9.10;99.90
24146;DHT22;12308;50.948;4.706;2023-04-16T01:35:39;9.10;99.90
24146;DHT22;12308;50.948;4.706;2023-04-16T01:38:07;9.10;99.90
24146;DHT22;12308;50.948;4.706;2023-04-16T01:40:36;9.00;99.90
24146;DHT22;12308;50.948;4.706;2023-04-16T01:43:02;9.10;99.90
24146;DHT22;12308;50.948;4.706;2023-04-16T01:45:29;9.10;99.90
24146;DHT22;12308;50.948;4.706;2023-04-16T01:47:55;9.10;99.90
24146;DHT22;12308;50.948;4.706;2023-04-16T01:50:22;9.00;99.90
24146;DHT22;12308;50.948;4.706;2023-04-16T01:52:48;9.00;99.90
24146;DHT22;12308;50.948;4.706;2023-04-16T01:55:14;9.00;99.90
24146;DHT22;12308;50.948;4.706;2023-04-16T01:57:40;8.90;99.90
24146;DHT22;12308;50.948;4.706;2023-04-16T02:00:06;8.90;99.90
24146;DHT22;12308;50.948;4.706;2023-04-16T02:02:34;8.90;99.90
24146;DHT22;12308;50.948;4.706;2023-04-16T02:05:00;8.90;99.90
24146;DHT22;12308;50.948;4.706;2023-04-16T02:07:26;8.90;99.90
24146;DHT22;12308;50.948;4.706;2023-04-16T02:09:53;9.00;99.90
24146;DHT22;12308;50.948;4.706;2023-04-16T02:12:18;9.10;99.90
24146;DHT22;12308;50.948;4.706;2023-04-16T02:14:44;9.00;99.90
24146;DHT22;12308;50.948;4.706;2023-04-16T02:17:10;9.00;99.90
24146;DHT22;12308;50.948;4.706;2023-04-16T02:19:36;8.90;99.90
24146;DHT22;12308;50.948;4.706;2023-04-16T02:22:02;8.80;99.90
24146;DHT22;12308;50.948;4.706;2023-04-16T02:24:28;8.70;99.90
24146;DHT22;12308;50.948;4.706;2023-04-16T02:26:54;8.70;99.90
24146;DHT22;12308;50.948;4.706;2023-04-16T02:29:19;8.80;99.90
24146;DHT22;12308;50.948;4.706;2023-04-16T02:31:47;8.70;99.90
24146;DHT22;12308;50.948;4.706;2023-04-16T02:34:13;8.80;99.90
24146;DHT22;12308;50.948;4.706;2023-04-16T02:36:40;8.70;99.90
24146;DHT22;12308;50.948;4.706;2023-04-16T02:39:06;8.70;99.90
24146;DHT22;12308;50.948;4.706;2023-04-16T02:41:31;8.60;99.90
24146;DHT22;12308;50.948;4.706;2023-04-16T02:43:57;8.70;99.90
24146;DHT22;12308;50.948;4.706;2023-04-16T02:46:23;8.80;99.90
24146;DHT22;12308;50.948;4.706;2023-04-16T02:48:48;8.70;99.90
24146;DHT22;12308;50.948;4.706;2023-04-16T02:51:14;8.80;99.90
24146;DHT22;12308;50.948;4.706;2023-04-16T02:53:40;8.90;99.90
24146;DHT22;12308;50.948;4.706;2023-04-16T02:56:10;8.90;99.90
24146;DHT22;12308;50.948;4.706;2023-04-16T02:58:35;8.90;99.90
24146;DHT22;12308;50.948;4.706;2023-04-16T03:01:01;8.80;99.90
24146;DHT22;12308;50.948;4.706;2023-04-16T03:03:27;8.60;99.90
24146;DHT22;12308;50.948;4.706;2023-04-16T03:05:52;8.60;99.90
24146;DHT22;12308;50.948;4.706;2023-04-16T03:08:18;8.60;99.90
24146;DHT22;12308;50.948;4.706;2023-04-16T03:10:44;8.60;99.90
24146;DHT22;12308;50.948;4.706;2023-04-16T03:13:09;8.60;99.90
24146;DHT22;12308;50.948;4.706;2023-04-16T03:15:35;8.60;99.90
24146;DHT22;12308;50.948;4.706;2023-04-16T03:18:00;8.60;99.90
24146;DHT22;12308;50.948;4.706;2023-04-16T03:20:26;8.70;99.90
24146;DHT22;12308;50.948;4.706;2023-04-16T03:22:52;8.80;99.90
24146;DHT22;12308;50.948;4.706;2023-04-16T03:25:17;8.80;99.90
24146;DHT22;12308;50.948;4.706;2023-04-16T03:27:43;8.80;99.90
24146;DHT22;12308;50.948;4.706;2023-04-16T03:30:13;8.80;99.90
24146;DHT22;12308;50.948;4.706;2023-04-16T03:32:39;8.80;99.90
24146;DHT22;12308;50.948;4.706;2023-04-16T03:35:06;8.90;99.90
24146;DHT22;12308;50.948;4.706;2023-04-16T03:37:33;8.80;99.90
24146;DHT22;12308;50.948;4.706;2023-04-16T03:39:58;8.70;99.90
24146;DHT22;12308;50.948;4.706;2023-04-16T03:42:24;8.90;99.90
24146;DHT22;12308;50.948;4.706;2023-04-16T03:44:50;8.90;99.90
24146;DHT22;12308;50.948;4.706;2023-04-16T03:47:18;9.10;99.90
24146;DHT22;12308;50.948;4.706;2023-04-16T03:49:44;9.00;99.90
24146;DHT22;12308;50.948;4.706;2023-04-16T03:52:09;8.90;99.90
24146;DHT22;12308;50.948;4.706;2023-04-16T03:54:35;8.90;99.90
24146;DHT22;12308;50.948;4.706;2023-04-16T03:57:01;8.90;99.90
24146;DHT22;12308;50.948;4.706;2023-04-16T03:59:27;9.00;99.90
24146;DHT22;12308;50.948;4.706;2023-04-16T04:01:53;9.00;99.90
24146;DHT22;12308;50.948;4.706;2023-04-16T04:04:18;8.80;99.90
24146;DHT22;12308;50.948;4.706;2023-04-16T04:06:44;8.90;99.90
24146;DHT22;12308;50.948;4.706;2023-04-16T04:09:11;8.90;99.90
24146;DHT22;12308;50.948;4.706;2023-04-16T04:11:36;8.90;99.90
24146;DHT22;12308;50.948;4.706;2023-04-16T04:14:02;8.90;99.90
24146;DHT22;12308;50.948;4.706;2023-04-16T04:16:30;8.90;99.90
24146;DHT22;12308;50.948;4.706;2023-04-16T04:18:56;8.90;99.90
24146;DHT22;12308;50.948;4.706;2023-04-16T04:21:21;8.80;99.90
24146;DHT22;12308;50.948;4.706;2023-04-16T04:23:47;8.70;99.90
24146;DHT22;12308;50.948;4.706;2023-04-16T04:26:13;8.70;99.90
24146;DHT22;12308;50.948;4.706;2023-04-16T04:28:38;8.70;99.90
24146;DHT22;12308;50.948;4.706;2023-04-16T04:31:04;8.80;99.90
24146;DHT22;12308;50.948;4.706;2023-04-16T04:33:30;8.70;99.90
24146;DHT22;12308;50.948;4.706;2023-04-16T04:35:55;8.70;99.90
24146;DHT22;12308;50.948;4.706;2023-04-16T04:38:22;8.80;99.90
24146;DHT22;12308;50.948;4.706;2023-04-16T04:40:52;8.80;99.90
24146;DHT22;12308;50.948;4.706;2023-04-16T04:43:21;8.60;99.90
24146;DHT22;12308;50.948;4.706;2023-04-16T04:45:47;8.60;99.90
24146;DHT22;12308;50.948;4.706;2023-04-16T04:48:14;8.60;99.90
24146;DHT22;12308;50.948;4.706;2023-04-16T04:50:40;8.60;99.90
24146;DHT22;12308;50.948;4.706;2023-04-16T04:53:06;8.60;99.90
24146;DHT22;12308;50.948;4.706;2023-04-16T04:55:38;8.70;99.90
24146;DHT22;12308;50.948;4.706;2023-04-16T04:58:04;8.70;99.90
24146;DHT22;12308;50.948;4.706;2023-04-16T05:00:31;8.70;99.90
24146;DHT22;12308;50.948;4.706;2023-04-16T05:02:57;8.70;99.90
24146;DHT22;12308;50.948;4.706;2023-04-16T05:05:23;8.70;99.90
24146;DHT22;12308;50.948;4.706;2023-04-16T05:07:48;8.80;99.90
24146;DHT22;12308;50.948;4.706;2023-04-16T05:10:15;8.90;99.90
24146;DHT22;12308;50.948;4.706;2023-04-16T05:12:40;8.90;99.90
24146;DHT22;12308;50.948;4.706;2023-04-16T05:15:06;8.90;99.90
24146;DHT22;12308;50.948;4.706;2023-04-16T05:17:32;8.90;99.90
24146;DHT22;12308;50.948;4.706;2023-04-16T05:19:58;8.90;99.90
24146;DHT22;12308;50.948;4.706;2023-04-16T05:22:24;8.80;99.90
24146;DHT22;12308;50.948;4.706;2023-04-16T05:24:50;8.80;99.90
24146;DHT22;12308;50.948;4.706;2023-04-16T05:27:15;8.60;99.90
24146;DHT22;12308;50.948;4.706;2023-04-16T05:29:41;8.60;99.90
24146;DHT22;12308;50.948;4.706;2023-04-16T05:32:07;8.60;99.90
24146;DHT22;12308;50.948;4.706;2023-04-16T05:34:33;8.50;99.90
24146;DHT22;12308;50.948;4.706;2023-04-16T05:36:58;8.60;99.90
24146;DHT22;12308;50.948;4.706;2023-04-16T05:39:25;8.50;99.90
24146;DHT22;12308;50.948;4.706;2023-04-16T05:41:51;8.60;99.90
24146;DHT22;12308;50.948;4.706;2023-04-16T05:44:17;8.60;99.90
24146;DHT22;12308;50.948;4.706;2023-04-16T05:46:42;8.60;99.90
24146;DHT22;12308;50.948;4.706;2023-04-16T05:49:09;8.70;99.90
24146;DHT22;12308;50.948;4.706;2023-04-16T05:51:35;8.60;99.90
24146;DHT22;12308;50.948;4.706;2023-04-16T05:54:00;8.70;99.90
24146;DHT22;12308;50.948;4.706;2023-04-16T05:56:26;8.70;99.90
24146;DHT22;12308;50.948;4.706;2023-04-16T05:58:52;8.60;99.90
24146;DHT22;12308;50.948;4.706;2023-04-16T06:01:17;8.60;99.90
24146;DHT22;12308;50.948;4.706;2023-04-16T06:03:43;8.70;99.90
24146;DHT22;12308;50.948;4.706;2023-04-16T06:06:09;8.70;99.90
24146;DHT22;12308;50.948;4.706;2023-04-16T06:08:35;8.70;99.90
24146;DHT22;12308;50.948;4.706;2023-04-16T06:11:01;8.70;99.90
24146;DHT22;12308;50.948;4.706;2023-04-16T06:13:27;8.70;99.90
24146;DHT22;12308;50.948;4.706;2023-04-16T06:15:53;8.70;99.90
24146;DHT22;12308;50.948;4.706;2023-04-16T06:18:18;8.70;99.90
24146;DHT22;12308;50.948;4.706;2023-04-16T06:20:44;8.80;99.90
24146;DHT22;12308;50.948;4.706;2023-04-16T06:23:10;8.70;99.90
24146;DHT22;12308;50.948;4.706;2023-04-16T06:25:35;8.70;99.90
24146;DHT22;12308;50.948;4.706;2023-04-16T06:28:01;8.80;99.90
24146;DHT22;12308;50.948;4.706;2023-04-16T06:30:27;8.70;99.90
24146;DHT22;12308;50.948;4.706;2023-04-16T06:32:52;8.90;99.90
24146;DHT22;12308;50.948;4.706;2023-04-16T06:35:18;8.80;99.90
24146;DHT22;12308;50.948;4.706;2023-04-16T06:37:45;8.80;99.90
24146;DHT22;12308;50.948;4.706;2023-04-16T06:40:11;8.80;99.90
24146;DHT22;12308;50.948;4.706;2023-04-16T06:42:37;8.90;99.90
24146;DHT22;12308;50.948;4.706;2023-04-16T06:45:02;8.80;99.90
24146;DHT22;12308;50.948;4.706;2023-04-16T06:47:28;9.00;99.90
24146;DHT22;12308;50.948;4.706;2023-04-16T06:49:54;9.00;99.90
24146;DHT22;12308;50.948;4.706;2023-04-16T06:52:20;9.00;99.90
24146;DHT22;12308;50.948;4.706;2023-04-16T06:54:47;8.90;99.90
24146;DHT22;12308;50.948;4.706;2023-04-16T06:57:12;8.90;99.90
24146;DHT22;12308;50.948;4.706;2023-04-16T06:59:38;8.90;99.90
24146;DHT22;12308;50.948;4.706;2023-04-16T07:02:04;8.90;99.90
24146;DHT22;12308;50.948;4.706;2023-04-16T07:04:29;9.00;99.90
24146;DHT22;12308;50.948;4.706;2023-04-16T07:06:55;9.00;99.90
24146;DHT22;12308;50.948;4.706;2023-04-16T07:09:21;9.00;99.90
24146;DHT22;12308;50.948;4.706;2023-04-16T07:11:46;9.10;99.90
24146;DHT22;12308;50.948;4.706;2023-04-16T07:14:12;9.30;99.90
24146;DHT22;12308;50.948;4.706;2023-04-16T07:16:38;9.30;99.90
24146;DHT22;12308;50.948;4.706;2023-04-16T07:19:04;9.40;99.90
24146;DHT22;12308;50.948;4.706;2023-04-16T07:21:30;9.20;99.90
24146;DHT22;12308;50.948;4.706;2023-04-16T07:23:56;9.40;99.90
24146;DHT22;12308;50.948;4.706;2023-04-16T07:26:21;9.40;99.90
24146;DHT22;12308;50.948;4.706;2023-04-16T07:28:47;9.40;99.90
24146;DHT22;12308;50.948;4.706;2023-04-16T07:31:13;9.40;99.90
24146;DHT22;12308;50.948;4.706;2023-04-16T07:33:38;9.40;99.90
24146;DHT22;12308;50.948;4.706;2023-04-16T07:36:04;9.40;99.90
24146;DHT22;12308;50.948;4.706;2023-04-16T07:38:30;9.40;99.90
24146;DHT22;12308;50.948;4.706;2023-04-16T07:40:55;9.30;99.90
24146;DHT22;12308;50.948;4.706;2023-04-16T07:43:21;9.30;99.90
24146;DHT22;12308;50.948;4.706;2023-04-16T07:45:47;9.20;99.90
24146;DHT22;12308;50.948;4.706;2023-04-16T07:48:12;9.20;99.90
24146;DHT22;12308;50.948;4.706;2023-04-16T07:50:38;9.40;99.90
24146;DHT22;12308;50.948;4.706;2023-04-16T07:53:04;9.50;99.90
24146;DHT22;12308;50.948;4.706;2023-04-16T07:55:31;9.50;99.90
24146;DHT22;12308;50.948;4.706;2023-04-16T07:57:57;9.60;99.90
24146;DHT22;12308;50.948;4.706;2023-04-16T08:00:23;9.50;99.90
24146;DHT22;12308;50.948;4.706;2023-04-16T08:02:48;9.40;99.90
24146;DHT22;12308;50.948;4.706;2023-04-16T08:05:14;9.30;99.90
24146;DHT22;12308;50.948;4.706;2023-04-16T08:07:40;9.30;99.90
24146;DHT22;12308;50.948;4.706;2023-04-16T08:10:06;9.30;99.90
24146;DHT22;12308;50.948;4.706;2023-04-16T08:12:32;9.40;99.90
24146;DHT22;12308;50.948;4.706;2023-04-16T08:14:57;9.40;99.90
24146;DHT22;12308;50.948;4.706;2023-04-16T08:17:23;9.50;99.90
24146;DHT22;12308;50.948;4.706;2023-04-16T08:19:48;9.40;99.90
24146;DHT22;12308;50.948;4.706;2023-04-16T08:22:14;9.40;99.90
24146;DHT22;12308;50.948;4.706;2023-04-16T08:24:40;9.40;99.90
24146;DHT22;12308;50.948;4.706;2023-04-16T08:27:06;9.30;99.90
24146;DHT22;12308;50.948;4.706;2023-04-16T08:29:31;9.30;99.90
24146;DHT22;12308;50.948;4.706;2023-04-16T08:31:58;9.20;99.90
24146;DHT22;12308;50.948;4.706;2023-04-16T08:34:24;9.20;99.90
24146;DHT22;12308;50.948;4.706;2023-04-16T08:36:50;9.20;99.90
24146;DHT22;12308;50.948;4.706;2023-04-16T08:39:16;9.10;99.90
24146;DHT22;12308;50.948;4.706;2023-04-16T08:41:44;9.10;99.90
24146;DHT22;12308;50.948;4.706;2023-04-16T08:44:16;9.10;99.90
24146;DHT22;12308;50.948;4.706;2023-04-16T08:46:44;9.10;99.90
24146;DHT22;12308;50.948;4.706;2023-04-16T08:49:16;9.20;99.90
24146;DHT22;12308;50.948;4.706;2023-04-16T08:51:49;9.10;99.90
24146;DHT22;12308;50.948;4.706;2023-04-16T08:56:50;9.20;99.90
24146;DHT22;12308;50.948;4.706;2023-04-16T08:59:16;9.20;99.90
24146;DHT22;12308;50.948;4.706;2023-04-16T09:01:42;9.30;99.90
24146;DHT22;12308;50.948;4.706;2023-04-16T09:04:08;9.30;99.90
24146;DHT22;12308;50.948;4.706;2023-04-16T09:06:33;9.10;99.90
24146;DHT22;12308;50.948;4.706;2023-04-16T09:09:01;9.10;99.90
24146;DHT22;12308;50.948;4.706;2023-04-16T09:11:29;9.20;99.90
24146;DHT22;12308;50.948;4.706;2023-04-16T09:13:55;9.20;99.90
24146;DHT22;12308;50.948;4.706;2023-04-16T09:16:22;9.30;99.90
24146;DHT22;12308;50.948;4.706;2023-04-16T09:18:50;9.30;99.90
24146;DHT22;12308;50.948;4.706;2023-04-16T09:21:16;9.30;99.90
24146;DHT22;12308;50.948;4.706;2023-04-16T09:23:42;9.30;99.90
24146;DHT22;12308;50.948;4.706;2023-04-16T09:26:09;9.30;99.90
24146;DHT22;12308;50.948;4.706;2023-04-16T09:28:43;9.30;99.90
24146;DHT22;12308;50.948;4.706;2023-04-16T09:31:13;9.30;99.90
24146;DHT22;12308;50.948;4.706;2023-04-16T09:33:40;9.30;99.90
24146;DHT22;12308;50.948;4.706;2023-04-16T09:36:07;9.30;99.90
24146;DHT22;12308;50.948;4.706;2023-04-16T09:38:50;9.40;99.90
24146;DHT22;12308;50.948;4.706;2023-04-16T09:41:16;9.40;99.90
24146;DHT22;12308;50.948;4.706;2023-04-16T09:43:53;9.40;99.90
24146;DHT22;12308;50.948;4.706;2023-04-16T09:46:20;9.50;99.90
24146;DHT22;12308;50.948;4.706;2023-04-16T09:48:46;9.40;99.90
24146;DHT22;12308;50.948;4.706;2023-04-16T09:51:11;9.60;99.90
24146;DHT22;12308;50.948;4.706;2023-04-16T09:53:37;9.70;99.90
24146;DHT22;12308;50.948;4.706;2023-04-16T09:56:05;9.80;99.90
24146;DHT22;12308;50.948;4.706;2023-04-16T09:58:31;9.60;99.90
24146;DHT22;12308;50.948;4.706;2023-04-16T10:01:08;9.60;99.90
24146;DHT22;12308;50.948;4.706;2023-04-16T10:03:36;9.50;99.90
24146;DHT22;12308;50.948;4.706;2023-04-16T10:06:16;9.50;99.90
24146;DHT22;12308;50.948;4.706;2023-04-16T10:08:46;9.50;99.90
24146;DHT22;12308;50.948;4.706;2023-04-16T10:11:12;9.60;99.90
24146;DHT22;12308;50.948;4.706;2023-04-16T10:13:38;9.60;99.90
24146;DHT22;12308;50.948;4.706;2023-04-16T10:16:04;9.60;99.90
24146;DHT22;12308;50.948;4.706;2023-04-16T10:18:30;9.70;99.90
24146;DHT22;12308;50.948;4.706;2023-04-16T10:20:56;9.80;99.90
24146;DHT22;12308;50.948;4.706;2023-04-16T10:23:22;9.80;99.90
24146;DHT22;12308;50.948;4.706;2023-04-16T10:25:49;9.80;99.90
24146;DHT22;12308;50.948;4.706;2023-04-16T10:28:15;9.80;99.90
24146;DHT22;12308;50.948;4.706;2023-04-16T10:30:48;9.80;99.90
24146;DHT22;12308;50.948;4.706;2023-04-16T10:33:23;9.90;99.90
24146;DHT22;12308;50.948;4.706;2023-04-16T10:35:52;9.90;99.90
24146;DHT22;12308;50.948;4.706;2023-04-16T10:38:31;9.90;99.90
24146;DHT22;12308;50.948;4.706;2023-04-16T10:41:04;9.90;99.90
24146;DHT22;12308;50.948;4.706;2023-04-16T10:43:31;9.90;99.90
24146;DHT22;12308;50.948;4.706;2023-04-16T10:46:16;9.90;99.90
24146;DHT22;12308;50.948;4.706;2023-04-16T10:48:42;10.00;99.90
24146;DHT22;12308;50.948;4.706;2023-04-16T10:51:34;9.90;99.90
24146;DHT22;12308;50.948;4.706;2023-04-16T10:54:22;10.00;99.90
24146;DHT22;12308;50.948;4.706;2023-04-16T10:56:49;10.10;99.90
24146;DHT22;12308;50.948;4.706;2023-04-16T10:59:20;10.10;99.90
24146;DHT22;12308;50.948;4.706;2023-04-16T11:01:57;10.00;99.90
24146;DHT22;12308;50.948;4.706;2023-04-16T11:10:00;10.00;99.90
24146;DHT22;12308;50.948;4.706;2023-04-16T11:12:35;9.90;99.90
24146;DHT22;12308;50.948;4.706;2023-04-16T11:15:09;10.00;99.90
24146;DHT22;12308;50.948;4.706;2023-04-16T11:17:44;10.00;99.90
24146;DHT22;12308;50.948;4.706;2023-04-16T11:20:19;10.00;99.90
24146;DHT22;12308;50.948;4.706;2023-04-16T11:22:45;10.00;99.90
24146;DHT22;12308;50.948;4.706;2023-04-16T11:25:11;10.00;99.90
24146;DHT22;12308;50.948;4.706;2023-04-16T11:27:37;9.90;99.90
24146;DHT22;12308;50.948;4.706;2023-04-16T11:30:05;10.00;99.90
24146;DHT22;12308;50.948;4.706;2023-04-16T11:32:32;10.10;99.90
24146;DHT22;12308;50.948;4.706;2023-04-16T11:34:59;10.20;99.90
24146;DHT22;12308;50.948;4.706;2023-04-16T11:37:32;10.30;99.90
24146;DHT22;12308;50.948;4.706;2023-04-16T11:39:59;10.40;99.90
24146;DHT22;12308;50.948;4.706;2023-04-16T11:42:25;10.30;99.90
24146;DHT22;12308;50.948;4.706;2023-04-16T11:44:52;10.30;99.90
24146;DHT22;12308;50.948;4.706;2023-04-16T11:47:18;10.30;99.90
24146;DHT22;12308;50.948;4.706;2023-04-16T11:49:44;10.30;99.90
24146;DHT22;12308;50.948;4.706;2023-04-16T11:52:10;10.20;99.90
24146;DHT22;12308;50.948;4.706;2023-04-16T11:54:36;10.20;99.90
24146;DHT22;12308;50.948;4.706;2023-04-16T11:57:02;10.30;99.90
24146;DHT22;12308;50.948;4.706;2023-04-16T11:59:29;10.30;99.90
24146;DHT22;12308;50.948;4.706;2023-04-16T12:01:55;10.40;99.90
24146;DHT22;12308;50.948;4.706;2023-04-16T12:04:23;10.40;99.90
24146;DHT22;12308;50.948;4.706;2023-04-16T12:07:10;10.50;99.90
24146;DHT22;12308;50.948;4.706;2023-04-16T12:09:38;10.50;99.90
24146;DHT22;12308;50.948;4.706;2023-04-16T12:12:04;10.40;99.90
24146;DHT22;12308;50.948;4.706;2023-04-16T12:14:30;10.30;99.90
24146;DHT22;12308;50.948;4.706;2023-04-16T12:17:16;10.40;99.90
24146;DHT22;12308;50.948;4.706;2023-04-16T12:19:55;10.50;99.90
24146;DHT22;12308;50.948;4.706;2023-04-16T12:22:44;10.50;99.90
24146;DHT22;12308;50.948;4.706;2023-04-16T12:25:12;10.50;99.90
24146;DHT22;12308;50.948;4.706;2023-04-16T12:27:45;10.50;99.90
24146;DHT22;12308;50.948;4.706;2023-04-16T12:30:13;10.40;99.90
24146;DHT22;12308;50.948;4.706;2023-04-16T12:32:40;10.40;99.90
24146;DHT22;12308;50.948;4.706;2023-04-16T12:35:06;10.40;99.90
24146;DHT22;12308;50.948;4.706;2023-04-16T12:37:32;10.30;99.90
24146;DHT22;12308;50.948;4.706;2023-04-16T12:39:58;10.40;99.90
24146;DHT22;12308;50.948;4.706;2023-04-16T12:42:23;10.40;99.90
24146;DHT22;12308;50.948;4.706;2023-04-16T12:44:49;10.40;99.90
24146;DHT22;12308;50.948;4.706;2023-04-16T12:47:15;10.40;99.90
24146;DHT22;12308;50.948;4.706;2023-04-16T12:49:40;10.50;99.90
24146;DHT22;12308;50.948;4.706;2023-04-16T12:52:06;10.50;99.90
24146;DHT22;12308;50.948;4.706;2023-04-16T12:54:32;10.50;99.90
24146;DHT22;12308;50.948;4.706;2023-04-16T12:56:58;10.40;99.90
24146;DHT22;12308;50.948;4.706;2023-04-16T12:59:23;10.40;99.90
24146;DHT22;12308;50.948;4.706;2023-04-16T13:01:49;10.40;99.90
24146;DHT22;12308;50.948;4.706;2023-04-16T13:04:15;10.40;99.90
24146;DHT22;12308;50.948;4.706;2023-04-16T13:06:42;10.40;99.90
24146;DHT22;12308;50.948;4.706;2023-04-16T13:09:07;10.40;99.90
24146;DHT22;12308;50.948;4.706;2023-04-16T13:11:33;10.40;99.90
24146;DHT22;12308;50.948;4.706;2023-04-16T13:13:59;10.40;99.90
24146;DHT22;12308;50.948;4.706;2023-04-16T13:16:24;10.40;99.90
24146;DHT22;12308;50.948;4.706;2023-04-16T13:18:50;10.50;99.90
24146;DHT22;12308;50.948;4.706;2023-04-16T13:21:16;10.50;99.90
24146;DHT22;12308;50.948;4.706;2023-04-16T13:23:41;10.50;99.90
24146;DHT22;12308;50.948;4.706;2023-04-16T13:26:07;10.60;99.90
24146;DHT22;12308;50.948;4.706;2023-04-16T13:28:33;10.70;99.90
24146;DHT22;12308;50.948;4.706;2023-04-16T13:30:58;10.70;99.90
24146;DHT22;12308;50.948;4.706;2023-04-16T13:33:25;10.70;99.90
24146;DHT22;12308;50.948;4.706;2023-04-16T13:35:51;10.80;99.90
24146;DHT22;12308;50.948;4.706;2023-04-16T13:38:16;10.90;99.90
24146;DHT22;12308;50.948;4.706;2023-04-16T13:40:42;11.00;99.90
24146;DHT22;12308;50.948;4.706;2023-04-16T13:43:08;11.10;99.90
24146;DHT22;12308;50.948;4.706;2023-04-16T13:45:35;11.00;99.90
24146;DHT22;12308;50.948;4.706;2023-04-16T13:48:01;11.00;99.90
24146;DHT22;12308;50.948;4.706;2023-04-16T13:50:27;11.00;99.90
24146;DHT22;12308;50.948;4.706;2023-04-16T13:52:53;11.00;99.90
24146;DHT22;12308;50.948;4.706;2023-04-16T13:55:18;11.00;99.90
24146;DHT22;12308;50.948;4.706;2023-04-16T13:57:47;11.00;99.90
24146;DHT22;12308;50.948;4.706;2023-04-16T14:00:14;11.10;99.90
24146;DHT22;12308;50.948;4.706;2023-04-16T14:02:41;11.10;99.90
24146;DHT22;12308;50.948;4.706;2023-04-16T14:05:07;11.10;99.90
24146;DHT22;12308;50.948;4.706;2023-04-16T14:07:33;11.10;99.90
24146;DHT22;12308;50.948;4.706;2023-04-16T14:09:59;11.20;99.90
24146;DHT22;12308;50.948;4.706;2023-04-16T14:12:26;11.20;99.90
24146;DHT22;12308;50.948;4.706;2023-04-16T14:14:52;11.40;99.90
24146;DHT22;12308;50.948;4.706;2023-04-16T14:17:17;11.20;99.90
24146;DHT22;12308;50.948;4.706;2023-04-16T14:19:43;11.20;99.90
24146;DHT22;12308;50.948;4.706;2023-04-16T14:22:09;11.10;99.90
24146;DHT22;12308;50.948;4.706;2023-04-16T14:24:35;11.10;99.90
24146;DHT22;12308;50.948;4.706;2023-04-16T14:27:01;11.20;99.90
24146;DHT22;12308;50.948;4.706;2023-04-16T14:29:27;11.20;99.90
24146;DHT22;12308;50.948;4.706;2023-04-16T14:31:52;11.20;99.90
24146;DHT22;12308;50.948;4.706;2023-04-16T14:34:18;11.20;99.90
24146;DHT22;12308;50.948;4.706;2023-04-16T14:36:44;11.20;99.90
24146;DHT22;12308;50.948;4.706;2023-04-16T14:39:10;11.20;99.90
24146;DHT22;12308;50.948;4.706;2023-04-16T14:41:35;11.20;99.90
24146;DHT22;12308;50.948;4.706;2023-04-16T14:44:01;11.30;99.90
24146;DHT22;12308;50.948;4.706;2023-04-16T14:46:28;11.30;99.90
24146;DHT22;12308;50.948;4.706;2023-04-16T14:48:54;11.20;99.90
24146;DHT22;12308;50.948;4.706;2023-04-16T14:51:20;11.20;99.90
24146;DHT22;12308;50.948;4.706;2023-04-16T14:53:46;11.20;99.90
24146;DHT22;12308;50.948;4.706;2023-04-16T14:56:11;11.30;99.90
24146;DHT22;12308;50.948;4.706;2023-04-16T14:58:38;11.50;99.90
24146;DHT22;12308;50.948;4.706;2023-04-16T15:01:04;11.50;99.90
24146;DHT22;12308;50.948;4.706;2023-04-16T15:03:29;11.50;99.90
24146;DHT22;12308;50.948;4.706;2023-04-16T15:05:58;11.40;99.90
24146;DHT22;12308;50.948;4.706;2023-04-16T15:08:24;11.30;99.90
24146;DHT22;12308;50.948;4.706;2023-04-16T15:10:50;11.50;99.90
24146;DHT22;12308;50.948;4.706;2023-04-16T15:13:16;11.50;99.90
24146;DHT22;12308;50.948;4.706;2023-04-16T15:15:42;11.40;99.90
24146;DHT22;12308;50.948;4.706;2023-04-16T15:18:08;11.50;99.90
24146;DHT22;12308;50.948;4.706;2023-04-16T15:20:34;11.50;99.90
24146;DHT22;12308;50.948;4.706;2023-04-16T15:23:00;11.50;99.90
24146;DHT22;12308;50.948;4.706;2023-04-16T15:25:26;11.50;99.90
24146;DHT22;12308;50.948;4.706;2023-04-16T15:27:51;11.50;99.90
24146;DHT22;12308;50.948;4.706;2023-04-16T15:30:17;11.50;99.90
24146;DHT22;12308;50.948;4.706;2023-04-16T15:32:43;11.50;99.90
24146;DHT22;12308;50.948;4.706;2023-04-16T15:35:09;11.50;99.90
24146;DHT22;12308;50.948;4.706;2023-04-16T15:37:35;11.60;99.90
24146;DHT22;12308;50.948;4.706;2023-04-16T15:40:01;11.60;99.90
24146;DHT22;12308;50.948;4.706;2023-04-16T15:42:30;11.50;99.90
24146;DHT22;12308;50.948;4.706;2023-04-16T15:44:56;11.40;99.90
24146;DHT22;12308;50.948;4.706;2023-04-16T15:47:21;11.40;99.90